map of LFPV home
LFPV - Airport
Location
City:  Vélizy-Villacoublay, Île-de-France, France
Name:Vélizy-Villacoublay AB
ICAO:LFPV

Details
Type:Airport (Aerodrome, Airfield)
Use:Military
Latitude:48°46'27"N (48.774172)
Longitude:2°11'30"E (2.191694)
Elevation:584 ft (178 m)
Variation:0.66°E (WMM2015 magnetic declination)
0.13° annual change
Runways:1
Longest:5948 × 148 ft (1813 × 45 m)

Time
Time Zone:UTC+1 (DST+2)
Local Time:

Weather
METAR:LFPV 211630Z AUTO 01004KT CAVOK 16/05 Q1025 NOSIG
TAF:LFPV 211400Z 2115/2215 02006KT CAVOK
BECMG 2202/2204 BKN007
TEMPO 2204/2209 3000 DZ BR BKN002
BECMG 2210/2212 02010G20KT BKN020
FM221300 02010G20KT CAVOK

Related Locations
Nearby:
Farthest:CHT: 12081 mi / 19443 km
Waitangi [Tuuta], CIT, NZ

Find:

   beyond  
but within

Other Information
Maps:
NOTAMs:
Links:
Sources:

  
  • flag of France
  • flag of Île-de-France
  

Sectional Chart

Flight Planning
at skyvector.com

Satellite Image

Google Maps Satellite view

 

Copyright © 2004-2018 Karl L. Swartz. All rights reserved.
The Great Circle Mapper name and logo are trademarks of the Great Circle Mapper.
All other trademarks mentioned herein belong to their respective owners.
Please see credits for attibutions and further copyright information.

  Follow gcmap on Facebook Follow gcmap on Twitter Follow gcmap on Google+ GCmap on LinkedIn

hCard Microformat

Geo Microformat